Time;durP1;ratioP1;P1;durP2;ratioP2;P2;SDS_P1;SDS_P2;PMS_P1;PMS_P2;Temp;Humidity;BMP_temperature;BMP_pressure;BME280_temperature;BME280_humidity;BME280_pressure;Samples;Min_cycle;Max_cycle;Signal;HPM_P1;HPM_P2
2023/03/23 00:00:10;;;;;;;5.50;1.80;;;;;;;14.36;77.27;100131.19;5070275;28;20064;-64
2023/03/23 00:02:40;;;;;;;6.40;1.80;;;;;;;14.41;77.30;100142.00;5073679;28;20044;-64
2023/03/23 00:05:07;;;;;;;4.03;1.20;;;;;;;14.48;76.86;100147.75;5056808;28;20420;-65
2023/03/23 00:07:34;;;;;;;6.50;1.92;;;;;;;14.52;76.01;100132.84;5062587;28;20534;-64
2023/03/23 00:10:02;;;;;;;4.00;1.45;;;;;;;14.71;74.20;100134.94;5075097;28;20056;-65
2023/03/23 00:12:33;;;;;;;4.93;1.55;;;;;;;14.43;75.17;100132.22;5069736;28;20519;-64
2023/03/23 00:15:01;;;;;;;3.65;1.23;;;;;;;14.55;74.68;100123.84;5061548;28;20602;-64
2023/03/23 00:17:28;;;;;;;7.72;1.83;;;;;;;14.61;74.53;100121.59;5072512;28;20044;-65
2023/03/23 00:19:55;;;;;;;4.25;1.30;;;;;;;14.28;75.39;100126.59;5075073;28;20076;-64
2023/03/23 00:22:24;;;;;;;5.88;1.40;;;;;;;14.29;75.55;100108.81;5073323;28;20730;-65
2023/03/23 00:24:51;;;;;;;4.55;1.50;;;;;;;14.23;75.48;100112.97;5057479;28;20047;-65
2023/03/23 00:27:18;;;;;;;5.63;1.73;;;;;;;13.87;76.76;100113.91;5017968;28;20049;-64
2023/03/23 00:29:45;;;;;;;4.55;1.35;;;;;;;14.12;76.58;100118.19;5049193;28;20496;-64
2023/03/23 00:32:16;;;;;;;7.10;1.50;;;;;;;14.06;76.29;100124.34;5073879;28;20051;-64
2023/03/23 00:34:43;;;;;;;6.72;1.50;;;;;;;13.93;76.44;100122.78;5075517;28;20068;-65
2023/03/23 00:37:10;;;;;;;5.93;1.92;;;;;;;14.01;76.65;100114.31;5053051;28;20045;-64
2023/03/23 00:39:38;;;;;;;3.50;1.30;;;;;;;13.92;76.79;100124.72;5020357;28;20068;-65
2023/03/23 00:42:05;;;;;;;8.35;1.85;;;;;;;13.82;77.33;100121.63;5038049;28;20052;-65
2023/03/23 00:44:34;;;;;;;5.60;1.83;;;;;;;13.85;76.79;100115.38;5075111;28;20408;-64
2023/03/23 00:47:01;;;;;;;;;;;;;;;14.01;76.11;100110.72;5079010;28;20041;-63
2023/03/23 00:49:27;;;;;;;5.72;1.80;;;;;;;13.91;76.81;100105.69;5078653;28;19921;-65
2023/03/23 00:51:56;;;;;;;5.85;1.45;;;;;;;13.79;77.23;100094.66;5077153;28;20408;-64
2023/03/23 00:54:24;;;;;;;5.40;1.88;;;;;;;13.97;77.17;100102.31;5044771;28;20045;-64
2023/03/23 00:56:51;;;;;;;6.38;1.65;;;;;;;13.92;77.19;100118.38;5077016;28;20041;-65
2023/03/23 00:59:17;;;;;;;6.50;1.90;;;;;;;13.89;77.05;100111.59;5073179;28;20052;-64
2023/03/23 01:01:44;;;;;;;8.05;1.58;;;;;;;13.84;77.86;100116.56;5075563;28;20043;-63
2023/03/23 01:04:12;;;;;;;6.03;1.88;;;;;;;13.99;77.50;100104.72;5061844;28;20053;-64
2023/03/23 01:06:42;;;;;;;7.38;1.80;;;;;;;14.08;77.05;100102.63;5077884;28;20487;-64
2023/03/23 01:09:19;;;;;;;9.00;1.80;;;;;;;14.07;76.63;100101.81;5076750;28;20044;-64
2023/03/23 01:11:49;;;;;;;5.88;1.70;;;;;;;13.94;77.31;100113.28;5076193;28;20055;-64
2023/03/23 01:14:22;;;;;;;6.07;1.70;;;;;;;13.94;77.55;100124.38;5062222;28;20056;-66
2023/03/23 01:16:50;;;;;;;5.68;1.80;;;;;;;14.03;78.01;100114.78;5077581;28;20065;-64
2023/03/23 01:19:17;;;;;;;6.55;1.75;;;;;;;14.10;77.38;100098.38;5010421;28;20049;-65
2023/03/23 01:21:43;;;;;;;4.90;1.60;;;;;;;14.21;77.08;100091.16;5074900;28;20048;-65
2023/03/23 01:24:10;;;;;;;9.35;2.00;;;;;;;13.92;78.10;100082.38;5078102;28;20055;-64
2023/03/23 01:26:36;;;;;;;6.40;1.73;;;;;;;14.01;78.50;100105.19;5057186;28;20053;-65
2023/03/23 01:29:03;;;;;;;4.95;1.85;;;;;;;14.20;77.56;100105.34;5075673;28;20048;-67
2023/03/23 01:31:30;;;;;;;7.63;2.15;;;;;;;14.07;78.27;100098.28;5075909;28;20507;-64
2023/03/23 01:33:56;;;;;;;6.18;2.00;;;;;;;14.00;78.52;100089.75;5077795;28;20052;-64
2023/03/23 01:36:32;;;;;;;10.00;2.20;;;;;;;14.14;77.63;100084.63;5075334;28;20055;-65
2023/03/23 01:39:04;;;;;;;5.63;1.73;;;;;;;13.97;78.45;100073.81;5060709;28;20047;-64
2023/03/23 01:41:32;;;;;;;4.07;1.55;;;;;;;13.92;78.94;100071.31;5075095;28;20059;-63
2023/03/23 01:44:08;;;;;;;6.43;2.10;;;;;;;13.77;78.76;100075.63;5077159;28;20036;-66
2023/03/23 01:46:40;;;;;;;6.00;1.70;;;;;;;13.89;78.98;100067.28;5075044;28;20361;-66
2023/03/23 01:49:18;;;;;;;7.25;1.83;;;;;;;13.88;78.93;100057.34;5076330;28;20060;-65
2023/03/23 01:51:51;;;;;;;6.13;1.90;;;;;;;14.00;78.11;100059.28;5075209;28;20055;-66
2023/03/23 01:54:20;;;;;;;4.32;1.60;;;;;;;14.08;77.55;100042.53;5077908;28;20049;-64
2023/03/23 01:56:48;;;;;;;;;;;;;;;13.96;77.82;100039.00;5042853;28;20044;-64
2023/03/23 01:59:15;;;;;;;2.72;1.25;;;;;;;14.00;77.94;100048.22;5076113;28;20375;-65
2023/03/23 02:01:46;;;;;;;4.78;1.70;;;;;;;13.98;78.05;100034.69;5074906;28;20037;-64
2023/03/23 02:04:14;;;;;;;3.17;1.40;;;;;;;14.10;77.14;100029.13;5076226;28;20060;-65
2023/03/23 02:06:42;;;;;;;3.72;1.40;;;;;;;13.94;77.69;100036.59;5074885;28;20055;-66
2023/03/23 02:09:19;;;;;;;5.43;1.60;;;;;;;13.85;78.32;100030.38;5057676;28;20060;-65
2023/03/23 02:11:49;;;;;;;3.47;1.27;;;;;;;13.94;77.67;100033.00;5038690;28;20064;-64
2023/03/23 02:14:17;;;;;;;4.88;1.58;;;;;;;14.08;77.49;100036.97;5055864;28;20053;-65
2023/03/23 02:17:03;;;;;;;3.83;1.55;;;;;;;14.01;77.23;100058.13;5050732;28;20377;-66
2023/03/23 02:19:54;;;;;;;5.25;1.38;;;;;;;13.86;77.95;100081.03;5075072;28;20899;-65
2023/03/23 02:22:56;;;;;;;4.45;1.48;;;;;;;13.96;77.60;100083.28;5074351;28;20067;-64
2023/03/23 02:25:31;;;;;;;7.85;1.67;;;;;;;13.92;77.71;100090.69;4989633;28;20521;-64
2023/03/23 02:28:13;;;;;;;5.78;1.50;;;;;;;13.88;78.00;100090.56;5070556;28;20052;-65
2023/03/23 02:30:50;;;;;;;5.25;1.30;;;;;;;14.02;77.05;100088.22;5061959;28;20052;-65
2023/03/23 02:33:38;;;;;;;6.00;1.35;;;;;;;14.01;76.89;100089.41;5072084;28;20400;-65
2023/03/23 02:36:36;;;;;;;4.32;1.50;;;;;;;14.21;76.44;100088.38;5024035;28;1104927;-65
2023/03/23 02:39:13;;;;;;;4.90;1.27;;;;;;;14.03;76.72;100083.50;5073356;28;20048;-65
2023/03/23 02:41:44;;;;;;;4.60;1.58;;;;;;;14.06;76.64;100097.44;5075611;28;20056;-66
2023/03/23 02:44:12;;;;;;;6.72;1.88;;;;;;;13.93;76.89;100100.63;5058532;28;20049;-65
2023/03/23 02:46:39;;;;;;;4.60;1.30;;;;;;;14.03;77.02;100095.41;5075460;28;20384;-65
2023/03/23 02:49:07;;;;;;;6.03;1.38;;;;;;;14.18;76.48;100099.34;5074480;28;20051;-65
2023/03/23 02:51:34;;;;;;;4.45;1.63;;;;;;;14.05;76.16;100086.72;5075158;28;20435;-65
2023/03/23 02:54:03;;;;;;;4.35;1.30;;;;;;;13.93;76.76;100076.47;5059524;28;20055;-65
2023/03/23 02:56:30;;;;;;;4.93;1.63;;;;;;;13.83;76.97;100087.25;5055294;28;20404;-65
2023/03/23 02:58:58;;;;;;;6.55;1.48;;;;;;;14.05;76.95;100075.66;5040336;28;20068;-65
2023/03/23 03:01:32;;;;;;;4.27;1.73;;;;;;;14.37;75.60;100071.84;5055790;28;20048;-65
2023/03/23 03:04:06;;;;;;;7.10;1.65;;;;;;;14.01;76.17;100066.44;5076778;28;20060;-65
2023/03/23 03:06:50;;;;;;;6.55;1.70;;;;;;;14.00;76.44;100070.38;5072842;28;20061;-64
2023/03/23 03:09:46;;;;;;;6.30;1.75;;;;;;;13.94;76.02;100064.28;5056646;28;20052;-64
2023/03/23 03:12:21;;;;;;;8.05;1.92;;;;;;;13.77;77.39;100052.69;5073092;28;20049;-64
2023/03/23 03:15:28;;;;;;;6.22;1.70;;;;;;;13.93;77.02;100046.03;5075860;28;20056;-64
2023/03/23 03:18:22;;;;;;;6.43;1.60;;;;;;;14.14;75.93;100052.16;5025333;28;20079;-65
2023/03/23 03:20:53;;;;;;;5.25;1.63;;;;;;;13.94;76.70;100061.50;5073375;28;20075;-65
2023/03/23 03:23:23;;;;;;;5.63;1.77;;;;;;;14.25;75.77;100066.31;5074395;28;20494;-66
2023/03/23 03:25:53;;;;;;;6.90;1.90;;;;;;;14.05;76.35;100061.81;5048586;28;20052;-65
2023/03/23 03:28:28;;;;;;;6.30;1.40;;;;;;;14.02;76.31;100068.84;5060064;28;20412;-65
2023/03/23 03:30:57;;;;;;;7.32;1.77;;;;;;;14.02;76.94;100062.50;5060702;28;20067;-64
2023/03/23 03:33:25;;;;;;;4.90;1.50;;;;;;;13.97;76.88;100068.28;5059060;28;20051;-65
2023/03/23 03:35:57;;;;;;;6.28;1.67;;;;;;;13.98;77.02;100069.91;5044945;28;20060;-64
2023/03/23 03:38:23;;;;;;;6.65;1.50;;;;;;;14.03;76.88;100064.94;5074466;28;20052;-64
2023/03/23 03:40:52;;;;;;;5.32;1.42;;;;;;;14.01;76.61;100058.94;5074354;28;20522;-64
2023/03/23 03:43:18;;;;;;;5.25;1.73;;;;;;;14.04;76.77;100066.53;5058919;28;20048;-64
2023/03/23 03:45:45;;;;;;;9.18;1.55;;;;;;;14.06;77.25;100068.94;5073899;28;20605;-63
2023/03/23 03:48:11;;;;;;;3.63;1.30;;;;;;;14.06;76.26;100058.69;5058322;28;20431;-63
2023/03/23 03:50:38;;;;;;;4.72;1.67;;;;;;;14.07;76.39;100059.50;5044220;28;20404;-64
2023/03/23 03:53:05;;;;;;;5.25;1.80;;;;;;;13.88;77.47;100062.88;5075157;28;20044;-64
2023/03/23 03:55:35;;;;;;;5.15;1.70;;;;;;;13.90;78.51;100068.88;5057407;28;20063;-64
2023/03/23 03:58:05;;;;;;;4.68;1.50;;;;;;;13.93;78.59;100056.31;5075236;28;20056;-64
2023/03/23 04:00:49;;;;;;;5.30;1.77;;;;;;;13.94;78.68;100067.03;5059083;28;21143;-64
2023/03/23 04:03:20;;;;;;;4.63;1.63;;;;;;;13.90;78.88;100070.84;5075397;28;20053;-64
2023/03/23 04:06:06;;;;;;;8.43;1.63;;;;;;;14.10;78.53;100072.63;5073802;28;20131;-65
2023/03/23 04:08:35;;;;;;;5.28;1.80;;;;;;;14.08;77.58;100069.41;5075406;28;20059;-68
2023/03/23 04:11:01;;;;;;;5.97;2.00;;;;;;;13.89;78.97;100077.56;5055905;28;20123;-64
2023/03/23 04:13:30;;;;;;;7.55;1.65;;;;;;;13.92;79.22;100074.06;5053713;28;20064;-64
2023/03/23 04:16:05;;;;;;;3.30;1.70;;;;;;;13.81;79.51;100084.03;5061296;28;20048;-66
2023/03/23 04:18:33;;;;;;;4.10;1.75;;;;;;;13.80;79.84;100074.94;5075567;28;20064;-68
2023/03/23 04:21:01;;;;;;;3.85;1.38;;;;;;;14.03;79.16;100080.72;5073767;28;20052;-65
2023/03/23 04:23:31;;;;;;;3.50;1.27;;;;;;;14.08;77.98;100078.53;5074498;28;20051;-64
2023/03/23 04:26:02;;;;;;;4.60;1.55;;;;;;;14.04;78.46;100074.03;5067731;28;20048;-64
2023/03/23 04:28:35;;;;;;;4.07;1.63;;;;;;;14.22;77.21;100089.19;5059187;28;20055;-64
2023/03/23 04:31:24;;;;;;;7.28;1.83;;;;;;;13.96;77.59;100092.41;5073221;28;20052;-65
2023/03/23 04:33:53;;;;;;;7.45;2.25;;;;;;;14.08;77.72;100089.59;5074849;28;20052;-64
2023/03/23 04:36:22;;;;;;;5.20;1.40;;;;;;;14.24;76.62;100090.44;5072287;28;20400;-65
2023/03/23 04:38:57;;;;;;;7.53;1.58;;;;;;;14.08;77.04;100086.03;5074978;28;20392;-65
2023/03/23 04:41:24;;;;;;;4.10;1.70;;;;;;;14.01;77.10;100107.97;5072437;28;20412;-65
2023/03/23 04:44:17;;;;;;;5.53;2.03;;;;;;;13.95;77.21;100104.63;5065736;28;20403;-65
2023/03/23 04:46:49;;;;;;;6.47;1.77;;;;;;;14.04;77.00;100101.72;5072919;28;20052;-64
2023/03/23 04:49:20;;;;;;;4.63;1.75;;;;;;;13.90;77.46;100110.41;5075127;28;20059;-66
2023/03/23 04:51:50;;;;;;;5.55;1.90;;;;;;;13.84;78.03;100099.94;5073552;28;20048;-65
2023/03/23 04:54:28;;;;;;;6.07;1.67;;;;;;;14.02;77.45;100093.75;5042002;28;20507;-65
2023/03/23 04:56:59;;;;;;;4.57;1.58;;;;;;;14.16;76.00;100093.38;5040771;28;20048;-65
2023/03/23 04:59:27;;;;;;;4.22;1.63;;;;;;;14.07;76.98;100090.75;5040915;28;20056;-65
2023/03/23 05:02:12;;;;;;;5.15;1.63;;;;;;;14.04;76.59;100102.53;5025920;28;20049;-64
2023/03/23 05:04:41;;;;;;;4.32;1.25;;;;;;;14.02;77.36;100099.31;5021847;28;20407;-65
2023/03/23 05:07:12;;;;;;;5.78;1.65;;;;;;;14.24;76.12;100100.72;5022266;28;20057;-66
2023/03/23 05:09:48;;;;;;;4.95;1.58;;;;;;;14.01;77.54;100113.50;5038887;28;20508;-65
2023/03/23 05:12:16;;;;;;;3.92;1.50;;;;;;;13.86;77.53;100111.47;5037447;28;20055;-64
2023/03/23 05:14:56;;;;;;;3.88;1.50;;;;;;;13.90;77.51;100107.66;5054421;28;20048;-65
2023/03/23 05:17:26;;;;;;;6.30;1.50;;;;;;;13.92;77.32;100110.88;5070883;28;20064;-65
2023/03/23 05:19:56;;;;;;;5.55;1.42;;;;;;;13.85;77.09;100109.84;5069850;28;20295;-65
2023/03/23 05:22:52;;;;;;;5.78;1.60;;;;;;;13.92;76.94;100110.06;5059220;28;20052;-65
2023/03/23 05:25:27;;;;;;;5.53;1.48;;;;;;;14.05;76.74;100103.34;5057004;28;20053;-65
2023/03/23 05:28:04;;;;;;;5.32;1.60;;;;;;;14.04;75.64;100104.47;5058901;28;20047;-64
2023/03/23 05:30:48;;;;;;;5.63;1.58;;;;;;;14.41;74.81;100101.28;5073627;28;20053;-64
2023/03/23 05:33:16;;;;;;;4.20;1.33;;;;;;;14.01;75.85;100111.53;5059914;28;20060;-64
2023/03/23 05:35:50;;;;;;;5.22;1.73;;;;;;;13.93;77.13;100109.72;5045797;28;20057;-65
2023/03/23 05:38:22;;;;;;;3.25;1.20;;;;;;;13.91;77.82;100109.28;5061198;28;20044;-64
2023/03/23 05:40:48;;;;;;;3.20;1.38;;;;;;;13.90;78.62;100115.94;5074430;28;20057;-63
2023/03/23 05:43:17;;;;;;;4.70;1.48;;;;;;;13.89;79.06;100110.78;5078218;28;20047;-64
2023/03/23 05:45:55;;;;;;;4.22;1.48;;;;;;;13.72;79.93;100116.56;5075103;28;20052;-64
2023/03/23 05:48:21;;;;;;;6.55;2.03;;;;;;;13.76;80.63;100114.72;5077790;28;20055;-64
2023/03/23 05:50:48;;;;;;;10.05;1.70;;;;;;;13.90;80.00;100106.84;5059018;28;20052;-65
2023/03/23 05:53:15;;;;;;;6.35;1.80;;;;;;;13.52;81.51;100102.53;5055861;28;20048;-65
2023/03/23 05:55:43;;;;;;;3.58;1.30;;;;;;;13.92;80.52;100104.53;5048567;28;20067;-64
2023/03/23 05:58:25;;;;;;;3.78;1.63;;;;;;;13.77;80.77;100108.84;5073172;28;20053;-64
2023/03/23 06:00:51;;;;;;;3.55;1.52;;;;;;;13.80;81.56;100101.78;5071528;28;20055;-65
2023/03/23 06:03:23;;;;;;;4.78;1.60;;;;;;;13.69;81.86;100107.00;5072616;28;20051;-65
2023/03/23 06:05:58;;;;;;;4.78;1.70;;;;;;;13.73;81.69;100104.34;5072870;28;20048;-64
2023/03/23 06:08:32;;;;;;;5.15;1.40;;;;;;;13.74;82.07;100108.75;5056518;28;20062;-65
2023/03/23 06:10:59;;;;;;;7.43;1.80;;;;;;;13.89;81.52;100110.78;5070577;28;20460;-65
2023/03/23 06:13:27;;;;;;;4.97;1.50;;;;;;;13.58;82.63;100106.66;5052675;28;20045;-64
2023/03/23 06:16:00;;;;;;;6.68;1.77;;;;;;;13.70;82.79;100113.34;5062801;28;20048;-64
2023/03/23 06:19:00;;;;;;;4.57;1.25;;;;;;;13.68;83.35;100118.41;5063975;28;20048;-64
2023/03/23 06:21:32;;;;;;;12.80;3.88;;;;;;;13.68;83.01;100110.94;5068831;28;20052;-64
2023/03/23 06:24:10;;;;;;;3.95;1.85;;;;;;;13.84;82.25;100114.59;5076594;28;20048;-64
2023/03/23 06:26:38;;;;;;;4.50;1.85;;;;;;;13.76;82.06;100120.25;5072127;28;20056;-65
2023/03/23 06:29:11;;;;;;;5.80;1.85;;;;;;;13.63;82.15;100118.66;5059006;28;20488;-64
2023/03/23 06:31:48;;;;;;;6.03;1.70;;;;;;;13.64;82.43;100110.00;5073267;28;20048;-65
2023/03/23 06:34:15;;;;;;;6.55;1.67;;;;;;;13.58;82.17;100116.94;5077124;28;20059;-64
2023/03/23 06:37:02;;;;;;;5.43;2.03;;;;;;;13.66;82.80;100124.31;5062649;28;20059;-64
2023/03/23 06:39:38;;;;;;;5.07;2.25;;;;;;;13.82;82.23;100121.63;5055882;28;20057;-65
2023/03/23 06:42:24;;;;;;;6.25;1.77;;;;;;;13.76;82.18;100131.31;5040429;28;20060;-64
2023/03/23 06:45:05;;;;;;;6.50;2.10;;;;;;;13.80;82.54;100135.00;5061493;28;20403;-65
2023/03/23 06:47:34;;;;;;;5.68;2.03;;;;;;;13.69;83.26;100145.75;5073110;28;20048;-65
2023/03/23 06:50:00;;;;;;;6.40;1.90;;;;;;;13.83;82.89;100153.69;5071457;28;20071;-65
2023/03/23 06:52:28;;;;;;;4.45;2.13;;;;;;;13.72;83.37;100156.13;5074082;28;20049;-65
2023/03/23 06:54:54;;;;;;;5.18;1.80;;;;;;;13.66;84.11;100163.06;5039876;28;20052;-65
2023/03/23 06:57:21;;;;;;;8.55;2.08;;;;;;;13.72;83.60;100163.63;5056856;28;20063;-66
2023/03/23 06:59:49;;;;;;;4.03;1.67;;;;;;;13.83;83.26;100167.53;5075352;28;20403;-67
2023/03/23 07:02:16;;;;;;;7.18;2.58;;;;;;;13.86;83.03;100166.84;5075391;28;20114;-65
2023/03/23 07:04:46;;;;;;;5.97;2.15;;;;;;;13.77;83.39;100180.00;5042441;28;20484;-64
2023/03/23 07:07:20;;;;;;;6.60;2.35;;;;;;;13.94;83.21;100171.44;5074228;28;20055;-64
2023/03/23 07:09:55;;;;;;;5.53;2.17;;;;;;;13.90;82.85;100165.78;5075429;28;20052;-64
2023/03/23 07:12:24;;;;;;;6.60;2.70;;;;;;;13.84;82.64;100169.16;5058149;28;20629;-65
2023/03/23 07:14:51;;;;;;;6.38;2.08;;;;;;;13.89;82.44;100180.81;5075896;28;20048;-65
2023/03/23 07:17:18;;;;;;;6.70;2.50;;;;;;;14.05;82.33;100169.81;5075691;28;20548;-66
2023/03/23 07:19:59;;;;;;;3.85;2.10;;;;;;;14.21;81.19;100165.16;5061715;28;20059;-66
2023/03/23 07:22:26;;;;;;;7.18;3.25;;;;;;;14.02;81.36;100171.31;5074858;28;20052;-65
2023/03/23 07:25:01;;;;;;;7.82;2.70;;;;;;;14.08;80.57;100181.00;5058510;28;20135;-64
2023/03/23 07:27:35;;;;;;;8.35;2.83;;;;;;;14.30;80.12;100177.72;5072543;28;20045;-64
2023/03/23 07:30:04;;;;;;;6.13;2.42;;;;;;;14.18;79.42;100174.16;5025558;28;20645;-66
2023/03/23 07:32:30;;;;;;;6.32;2.30;;;;;;;14.42;78.62;100163.81;5073971;28;20057;-65
2023/03/23 07:34:56;;;;;;;6.25;2.40;;;;;;;14.31;78.39;100173.00;5063929;28;20048;-65
2023/03/23 07:37:41;;;;;;;6.72;2.85;;;;;;;14.52;78.29;100168.84;5073224;28;20063;-64
2023/03/23 07:40:09;;;;;;;7.03;3.10;;;;;;;14.35;77.83;100173.88;5076933;28;20508;-65
2023/03/23 07:42:36;;;;;;;5.50;2.22;;;;;;;14.55;77.83;100176.50;5072274;28;20048;-63
2023/03/23 07:45:02;;;;;;;4.82;2.17;;;;;;;14.77;76.87;100179.84;5068190;28;20055;-64
2023/03/23 07:47:28;;;;;;;7.30;2.53;;;;;;;14.71;76.21;100182.06;5074366;28;20044;-65
2023/03/23 07:49:54;;;;;;;7.95;2.72;;;;;;;14.57;76.88;100188.00;5074780;28;20417;-66
2023/03/23 07:52:37;;;;;;;6.97;2.38;;;;;;;14.48;77.15;100189.31;5069422;28;20045;-65
2023/03/23 07:55:06;;;;;;;5.88;2.05;;;;;;;14.49;77.36;100207.56;5074147;28;20151;-65
2023/03/23 07:57:39;;;;;;;6.78;2.45;;;;;;;14.72;75.79;100171.78;5065972;28;20400;-65
2023/03/23 08:00:14;;;;;;;5.70;2.10;;;;;;;14.83;75.44;100192.28;5050556;28;20076;-64
2023/03/23 08:02:42;;;;;;;7.82;2.17;;;;;;;14.63;75.41;100213.50;5068974;28;20288;-64
2023/03/23 08:05:26;;;;;;;6.25;2.40;;;;;;;14.67;75.24;100208.88;5056239;28;20056;-67
2023/03/23 08:08:11;;;;;;;6.15;2.45;;;;;;;14.93;75.19;100206.44;5070991;28;20048;-63
2023/03/23 08:11:09;;;;;;;7.72;2.10;;;;;;;14.86;74.33;100205.44;5047236;28;20053;-64
2023/03/23 08:13:39;;;;;;;5.35;1.73;;;;;;;15.03;75.78;100203.16;5062410;28;20044;-64
2023/03/23 08:16:19;;;;;;;7.53;1.95;;;;;;;15.35;73.95;100207.59;5063918;28;20052;-64
2023/03/23 08:18:59;;;;;;;6.90;2.22;;;;;;;15.05;73.07;100198.06;5063828;28;20055;-64
2023/03/23 08:21:45;;;;;;;9.18;2.25;;;;;;;15.12;73.33;100201.03;5060379;28;20084;-65
2023/03/23 08:24:24;;;;;;;7.88;2.00;;;;;;;15.23;71.99;100202.13;5051655;28;20396;-62
2023/03/23 08:27:01;;;;;;;7.63;2.67;;;;;;;15.23;72.07;100204.88;5058540;28;20048;-62
2023/03/23 08:29:47;;;;;;;8.70;2.72;;;;;;;15.31;71.33;100214.19;5056215;28;20053;-63
2023/03/23 08:32:37;;;;;;;9.35;2.10;;;;;;;15.50;70.58;100217.09;5049758;28;20064;-64
2023/03/23 08:35:14;;;;;;;5.65;2.20;;;;;;;15.53;71.07;100210.84;5064631;28;20052;-64
2023/03/23 08:37:57;;;;;;;6.65;2.50;;;;;;;15.34;70.79;100203.19;5054780;28;20076;-64
2023/03/23 08:40:35;;;;;;;9.55;2.50;;;;;;;15.17;70.99;100213.81;5059754;28;20052;-63
2023/03/23 08:43:32;;;;;;;8.90;3.10;;;;;;;15.17;71.14;100228.50;5049789;28;20056;-65
2023/03/23 08:46:19;;;;;;;9.43;2.53;;;;;;;15.15;70.86;100214.16;5061757;28;20041;-65
2023/03/23 08:49:06;;;;;;;10.10;2.33;;;;;;;15.30;70.19;100207.84;5068786;28;20057;-65
2023/03/23 08:51:43;;;;;;;12.82;2.50;;;;;;;15.33;69.63;100209.91;5060445;28;20155;-66
2023/03/23 08:54:25;;;;;;;8.48;2.45;;;;;;;15.28;68.94;100204.63;5060080;28;20040;-65
2023/03/23 08:57:10;;;;;;;8.27;2.53;;;;;;;15.14;70.26;100209.78;5058739;28;20059;-64
2023/03/23 08:59:48;;;;;;;8.73;2.65;;;;;;;15.36;69.73;100203.63;5063520;28;20067;-70
2023/03/23 09:02:18;;;;;;;9.32;2.53;;;;;;;15.34;69.89;100199.63;5060383;28;20044;-64
2023/03/23 09:05:04;;;;;;;10.18;2.75;;;;;;;15.37;69.04;100212.78;5068284;28;20055;-64
2023/03/23 09:08:00;;;;;;;7.82;2.00;;;;;;;15.27;68.81;100222.41;5057879;28;20048;-63
2023/03/23 09:10:28;;;;;;;9.70;2.60;;;;;;;15.06;69.75;100237.72;5068234;28;20059;-64
2023/03/23 09:12:54;;;;;;;8.73;2.45;;;;;;;15.01;69.72;100240.75;5059637;28;20047;-65
2023/03/23 09:15:22;;;;;;;10.73;2.30;;;;;;;15.23;69.52;100234.59;5067022;28;20060;-63
2023/03/23 09:17:50;;;;;;;12.20;2.70;;;;;;;15.14;69.07;100240.31;5076246;28;20067;-64
2023/03/23 09:20:20;;;;;;;9.95;2.83;;;;;;;15.27;69.27;100227.19;5054222;28;20061;-64
2023/03/23 09:22:49;;;;;;;14.15;5.05;;;;;;;15.44;68.64;100227.69;5065971;28;20055;-64
2023/03/23 09:25:20;;;;;;;12.02;3.55;;;;;;;15.40;68.35;100223.19;5062417;28;20036;-64
2023/03/23 09:27:53;;;;;;;9.73;2.70;;;;;;;15.24;68.65;100225.09;5067275;28;20081;-67
2023/03/23 09:30:20;;;;;;;12.35;3.00;;;;;;;15.65;67.61;100214.34;5061550;28;20045;-64
2023/03/23 09:32:47;;;;;;;10.23;3.20;;;;;;;15.70;66.80;100208.50;5074346;28;20063;-65
2023/03/23 09:35:16;;;;;;;11.52;2.70;;;;;;;15.59;67.67;100215.75;5042476;28;20049;-64
2023/03/23 09:37:45;;;;;;;10.93;2.58;;;;;;;15.51;67.27;100219.53;5039623;28;20052;-65
2023/03/23 09:40:16;;;;;;;12.07;2.77;;;;;;;15.39;66.82;100227.91;5069418;28;20057;-66
2023/03/23 09:43:10;;;;;;;13.07;2.97;;;;;;;15.37;67.30;100230.25;5071400;28;20068;-65
2023/03/23 09:45:48;;;;;;;15.30;2.90;;;;;;;15.59;67.38;100221.31;5046818;28;20055;-64
2023/03/23 09:48:27;;;;;;;7.95;2.83;;;;;;;15.58;67.11;100235.56;5037130;28;20048;-65
2023/03/23 09:51:18;;;;;;;12.65;3.40;;;;;;;15.68;67.04;100229.44;5064060;28;20048;-65
2023/03/23 09:53:48;;;;;;;11.75;3.03;;;;;;;15.86;65.85;100229.88;5063088;28;20048;-66
2023/03/23 09:56:16;;;;;;;13.50;2.95;;;;;;;15.71;66.13;100226.75;5068232;28;20044;-66
2023/03/23 09:58:58;;;;;;;12.85;2.67;;;;;;;15.58;66.06;100230.00;5065546;28;20068;-65
2023/03/23 10:01:47;;;;;;;11.10;2.97;;;;;;;15.65;66.91;100227.41;5070154;28;20068;-65
2023/03/23 10:04:26;;;;;;;10.10;3.07;;;;;;;15.71;66.41;100220.41;5073698;28;20036;-63
2023/03/23 10:06:58;;;;;;;9.68;3.25;;;;;;;15.80;66.58;100204.34;5073405;28;20052;-65
2023/03/23 10:09:26;;;;;;;9.38;4.80;;;;;;;15.96;66.44;100193.22;5052541;28;20056;-65
2023/03/23 10:12:00;;;;;;;13.68;2.88;;;;;;;16.24;64.76;100207.75;5066740;28;20052;-65
2023/03/23 10:14:38;;;;;;;10.18;3.17;;;;;;;16.11;64.21;100204.28;5069890;28;20067;-65
2023/03/23 10:17:15;;;;;;;10.88;3.25;;;;;;;16.01;65.07;100198.50;5074907;28;20071;-65
2023/03/23 10:20:08;;;;;;;13.27;3.80;;;;;;;16.18;64.09;100198.88;5070898;28;20203;-65
2023/03/23 10:22:44;;;;;;;9.55;3.30;;;;;;;16.40;63.49;100214.06;5074050;28;20052;-67
2023/03/23 10:25:13;;;;;;;10.95;2.70;;;;;;;16.34;63.91;100227.44;5074299;28;20040;-65
2023/03/23 10:27:49;;;;;;;13.30;2.55;;;;;;;16.31;63.56;100217.06;5071014;28;20045;-65
2023/03/23 10:30:18;;;;;;;12.40;2.75;;;;;;;16.52;62.86;100206.44;5066633;28;20078;-64
2023/03/23 10:32:54;;;;;;;13.07;4.22;;;;;;;16.58;62.09;100201.41;5055146;28;21093;-64
2023/03/23 10:35:44;;;;;;;12.68;3.30;;;;;;;16.64;61.04;100203.50;5072037;28;20051;-65
2023/03/23 10:38:16;;;;;;;12.18;3.42;;;;;;;16.48;61.23;100216.66;5073355;28;20047;-65
2023/03/23 10:40:52;;;;;;;13.70;3.63;;;;;;;16.54;61.98;100225.53;5069822;28;20059;-65
2023/03/23 10:43:18;;;;;;;14.52;3.00;;;;;;;16.74;61.67;100221.56;5070121;28;20037;-66
2023/03/23 10:45:49;;;;;;;14.85;3.47;;;;;;;16.71;60.76;100211.19;5069271;28;20786;-63
2023/03/23 10:48:32;;;;;;;11.35;3.15;;;;;;;17.01;59.82;100191.91;5046858;28;20044;-64
2023/03/23 10:51:03;;;;;;;14.32;2.85;;;;;;;16.98;59.78;100218.47;5062647;28;20053;-65
2023/03/23 10:53:37;;;;;;;13.77;3.30;;;;;;;16.92;59.82;100219.97;5055126;28;20056;-66
2023/03/23 10:56:05;;;;;;;11.70;3.13;;;;;;;17.00;58.99;100196.66;5052450;28;20041;-65
2023/03/23 10:58:35;;;;;;;19.92;3.30;;;;;;;17.09;59.33;100197.22;5064527;28;20052;-65
2023/03/23 11:01:04;;;;;;;11.57;3.17;;;;;;;17.20;59.93;100195.44;5053924;28;20071;-64
2023/03/23 11:03:49;;;;;;;15.20;3.97;;;;;;;17.20;58.96;100192.66;5073340;28;20044;-63
2023/03/23 11:06:22;;;;;;;13.23;4.20;;;;;;;16.85;58.69;100208.69;5066667;28;20760;-65
2023/03/23 11:09:02;;;;;;;14.13;3.95;;;;;;;16.80;59.44;100214.56;5070070;28;20495;-64
2023/03/23 11:11:32;;;;;;;13.35;3.60;;;;;;;17.09;58.74;100199.19;5067264;28;20048;-65
2023/03/23 11:14:13;;;;;;;;;;;;;;;17.20;59.31;100206.59;5072032;28;20476;-65
2023/03/23 11:16:44;;;;;;;;;;;;;;;17.28;58.89;100201.94;5070905;28;19920;-66
2023/03/23 11:19:15;;;;;;;15.48;3.45;;;;;;;17.31;58.71;100212.34;5074837;28;19920;-64
2023/03/23 11:21:49;;;;;;;15.52;3.80;;;;;;;17.28;57.75;100196.34;5064397;28;20045;-63
2023/03/23 11:24:16;;;;;;;17.65;4.22;;;;;;;17.28;58.57;100196.34;5064231;28;20037;-63
2023/03/23 11:26:44;;;;;;;12.90;3.45;;;;;;;17.18;58.26;100192.22;5063217;28;20048;-64
2023/03/23 11:29:15;;;;;;;16.15;3.42;;;;;;;17.22;59.20;100193.09;5040336;28;20056;-64
2023/03/23 11:31:50;;;;;;;18.48;4.03;;;;;;;17.18;58.00;100208.94;5071352;28;20061;-63
2023/03/23 11:34:23;;;;;;;15.90;3.78;;;;;;;17.35;58.13;100200.09;5059031;28;20056;-64
2023/03/23 11:36:53;;;;;;;19.25;4.93;;;;;;;17.36;57.81;100198.13;5064141;28;20072;-65
2023/03/23 11:39:20;;;;;;;;;;;;;;;17.51;57.92;100189.66;5065169;28;20056;-65
2023/03/23 11:41:46;;;;;;;17.60;3.97;;;;;;;17.59;57.51;100185.03;5064037;28;19924;-64
2023/03/23 11:44:13;;;;;;;16.17;3.60;;;;;;;17.28;57.88;100179.66;5061725;28;20514;-64
2023/03/23 11:46:47;;;;;;;14.52;3.28;;;;;;;17.34;57.89;100180.97;5070799;28;20048;-63
2023/03/23 11:49:36;;;;;;;15.45;4.35;;;;;;;17.42;57.12;100188.25;5063497;28;20111;-63
2023/03/23 11:52:27;;;;;;;21.65;4.47;;;;;;;17.56;57.10;100189.34;5070665;28;20049;-64